Time;durP1;ratioP1;P1;durP2;ratioP2;P2;SDS_P1;SDS_P2;PMS_P1;PMS_P2;Temp;Humidity;BMP_temperature;BMP_pressure;BME280_temperature;BME280_humidity;BME280_pressure;Samples;Min_cycle;Max_cycle;Signal;HPM_P1;HPM_P2
2021/11/07 00:00:37;;;;;;;31.30;19.50;;;;;;;9.67;85.49;101416.78;5156223;27;21145;-69
2021/11/07 00:03:28;;;;;;;27.40;18.05;;;;;;;9.68;85.01;101413.13;5156715;27;20031;-69
2021/11/07 00:08:38;;;;;;;24.42;17.58;;;;;;;9.72;84.85;101420.88;5156152;27;20015;-68
2021/11/07 00:11:08;;;;;;;24.25;17.65;;;;;;;9.75;85.31;101419.78;5154885;27;20027;-69
2021/11/07 00:13:34;;;;;;;23.10;16.35;;;;;;;9.75;85.50;101407.28;5155942;27;20031;-69
2021/11/07 00:16:09;;;;;;;22.08;16.13;;;;;;;9.76;84.41;101398.25;5156086;27;20374;-70
2021/11/07 00:18:42;;;;;;;;;;;;;;;9.77;82.99;101396.44;5155075;27;20090;-69
2021/11/07 00:21:18;;;;;;;23.95;17.63;;;;;;;9.79;83.01;101394.50;5155736;27;19907;-69
2021/11/07 00:23:54;;;;;;;25.98;18.65;;;;;;;9.80;85.25;101393.56;5155450;27;20129;-70
2021/11/07 00:28:53;;;;;;;28.38;19.95;;;;;;;9.76;87.89;101398.25;5155409;27;20026;-69
2021/11/07 00:31:26;;;;;;;27.00;20.10;;;;;;;9.75;88.89;101398.34;5155614;27;20035;-69
2021/11/07 00:38:58;;;;;;;28.20;20.38;;;;;;;9.74;89.93;101400.16;5155643;27;20025;-69
2021/11/07 00:44:03;;;;;;;35.50;22.33;;;;;;;9.71;88.92;101381.66;5155478;27;20023;-70
2021/11/07 00:46:41;;;;;;;29.55;19.67;;;;;;;9.71;89.18;101375.41;5154932;27;20065;-70
2021/11/07 00:49:10;;;;;;;29.80;21.60;;;;;;;9.70;89.77;101366.53;5154051;27;20601;-68
2021/11/07 00:54:29;;;;;;;31.08;22.23;;;;;;;9.68;89.56;101359.56;5155252;27;20455;-69
2021/11/07 00:57:02;;;;;;;32.75;22.23;;;;;;;9.65;89.92;101336.53;5153888;27;20463;-69
2021/11/07 01:02:04;;;;;;;34.83;24.10;;;;;;;9.62;88.67;101306.41;5155246;27;20041;-70
2021/11/07 01:04:30;;;;;;;31.27;22.23;;;;;;;9.63;88.02;101300.06;5154565;27;20121;-68
2021/11/07 01:06:56;;;;;;;32.65;22.50;;;;;;;9.65;86.88;101308.88;5154980;27;20141;-71
2021/11/07 01:09:21;;;;;;;31.23;21.30;;;;;;;9.65;86.84;101299.03;5154796;27;20031;-69
2021/11/07 01:11:47;;;;;;;32.42;22.13;;;;;;;9.66;86.69;101311.44;5154763;27;20019;-70
2021/11/07 01:14:14;;;;;;;28.67;20.13;;;;;;;9.65;85.83;101298.16;5154895;27;20022;-69
2021/11/07 01:16:40;;;;;;;27.90;20.23;;;;;;;9.64;85.73;101297.28;5154489;27;20603;-69
2021/11/07 01:19:06;;;;;;;28.25;20.58;;;;;;;9.61;86.05;101285.94;5154832;27;20022;-70
2021/11/07 01:21:36;;;;;;;31.73;21.60;;;;;;;9.63;86.14;101292.03;5154759;27;20106;-70
2021/11/07 01:24:05;;;;;;;32.42;22.52;;;;;;;9.61;86.39;101278.75;5154559;27;20027;-70
2021/11/07 01:26:42;;;;;;;28.63;20.80;;;;;;;9.61;87.58;101275.22;5154574;27;20026;-70
2021/11/07 01:29:17;;;;;;;32.28;22.02;;;;;;;9.62;86.90;101269.78;5154467;27;20054;-69
2021/11/07 01:31:44;;;;;;;32.55;22.25;;;;;;;9.61;87.07;101280.59;5154389;27;20441;-69
2021/11/07 01:34:19;;;;;;;30.23;21.58;;;;;;;9.65;85.87;101279.41;5153051;27;20427;-69
2021/11/07 01:36:58;;;;;;;30.27;21.30;;;;;;;9.58;86.12;101281.66;5153538;27;20485;-70
2021/11/07 01:39:37;;;;;;;34.33;22.17;;;;;;;9.55;86.92;101270.28;5154107;27;20030;-70
2021/11/07 01:42:14;;;;;;;33.45;23.05;;;;;;;9.55;87.77;101263.13;5153015;27;20050;-69
2021/11/07 01:44:51;;;;;;;30.10;21.25;;;;;;;9.52;87.75;101249.94;5153981;27;20019;-69
2021/11/07 01:47:17;;;;;;;31.52;21.45;;;;;;;9.53;88.38;101235.56;5154067;27;20403;-69
2021/11/07 01:49:44;;;;;;;32.35;22.67;;;;;;;9.51;88.57;101234.81;5154042;27;20031;-68
2021/11/07 01:52:11;;;;;;;33.08;22.98;;;;;;;9.52;88.87;101238.38;5153870;27;20450;-69
2021/11/07 01:54:52;;;;;;;32.95;22.90;;;;;;;9.51;88.86;101232.13;5153981;27;20447;-69
2021/11/07 01:57:22;;;;;;;31.95;23.23;;;;;;;9.51;88.96;101242.00;5153758;27;20565;-69
2021/11/07 01:59:51;;;;;;;33.25;24.13;;;;;;;9.48;88.73;101239.53;5153866;27;20120;-70
2021/11/07 02:02:17;;;;;;;33.90;23.25;;;;;;;9.51;88.97;101239.34;5153906;27;20018;-70
2021/11/07 02:04:44;;;;;;;34.55;22.98;;;;;;;9.47;89.45;101238.69;5153404;27;20050;-69
2021/11/07 02:07:11;;;;;;;36.25;24.17;;;;;;;9.47;89.31;101246.72;5153930;27;20052;-68
2021/11/07 02:09:38;;;;;;;33.75;23.88;;;;;;;9.49;88.86;101249.28;5153593;27;20023;-69
2021/11/07 02:12:06;;;;;;;33.97;24.23;;;;;;;9.46;89.29;101242.31;5153748;27;20030;-69
2021/11/07 02:14:32;;;;;;;38.53;24.48;;;;;;;9.47;89.27;101241.34;5153588;27;20462;-69
2021/11/07 02:16:57;;;;;;;37.38;25.42;;;;;;;9.46;89.45;101228.06;5153523;27;20030;-68
2021/11/07 02:19:23;;;;;;;38.17;26.42;;;;;;;9.45;89.72;101219.19;5152086;27;20363;-69
2021/11/07 02:21:49;;;;;;;36.58;24.75;;;;;;;9.44;89.92;101220.13;5153462;27;20538;-69
2021/11/07 02:24:16;;;;;;;34.35;24.27;;;;;;;9.45;90.14;101227.22;5153425;27;20367;-69
2021/11/07 02:26:49;;;;;;;34.42;24.38;;;;;;;9.43;89.92;101223.78;5153485;27;20022;-70
2021/11/07 02:29:14;;;;;;;35.28;24.35;;;;;;;9.43;89.86;101215.75;5153454;27;20668;-69
2021/11/07 02:31:40;;;;;;;36.75;25.13;;;;;;;9.47;89.46;101216.38;5153188;27;20039;-69
2021/11/07 02:34:05;;;;;;;36.42;24.40;;;;;;;9.45;88.37;101213.84;5153753;27;20029;-69
2021/11/07 02:36:32;;;;;;;37.25;25.25;;;;;;;9.47;88.21;101211.03;5153173;27;20034;-69
2021/11/07 02:38:58;;;;;;;36.15;25.45;;;;;;;9.41;89.10;101201.59;5153260;27;20026;-69
2021/11/07 02:41:23;;;;;;;36.25;25.75;;;;;;;9.45;89.04;101208.50;5153374;27;20344;-69
2021/11/07 02:43:53;;;;;;;34.70;23.02;;;;;;;9.43;88.71;101198.81;5153427;27;20027;-69
2021/11/07 02:46:19;;;;;;;34.00;23.75;;;;;;;9.43;87.79;101202.38;5153313;27;20050;-70
2021/11/07 02:48:49;;;;;;;32.85;22.35;;;;;;;9.41;87.27;101187.38;5155246;27;20089;-70
2021/11/07 02:51:16;;;;;;;32.70;22.60;;;;;;;9.42;87.13;101165.84;5157628;27;20022;-69
2021/11/07 02:53:42;;;;;;;34.10;22.77;;;;;;;9.42;87.54;101157.81;5157520;27;20023;-69
2021/11/07 02:56:09;;;;;;;33.28;22.80;;;;;;;9.43;88.04;101164.88;5157920;27;20025;-69
2021/11/07 02:58:34;;;;;;;32.50;22.05;;;;;;;9.42;87.62;101163.19;5157267;27;20023;-69
2021/11/07 03:01:01;;;;;;;30.85;21.20;;;;;;;9.41;87.06;101165.97;5157391;27;20038;-69
2021/11/07 03:03:28;;;;;;;29.77;21.27;;;;;;;9.39;86.96;101168.75;5157249;27;20038;-68
2021/11/07 03:05:55;;;;;;;30.30;20.48;;;;;;;9.41;87.05;101152.56;5157659;27;20022;-70
2021/11/07 03:08:20;;;;;;;32.50;21.55;;;;;;;9.39;86.61;101152.69;5157438;27;20083;-71
2021/11/07 03:10:46;;;;;;;31.13;21.33;;;;;;;9.38;86.86;101147.44;5157241;27;20109;-69
2021/11/07 03:13:14;;;;;;;28.05;20.38;;;;;;;9.44;86.60;101155.03;5157491;27;20035;-69
2021/11/07 03:15:40;;;;;;;27.50;19.92;;;;;;;9.35;86.07;101129.75;5157558;27;20385;-69
2021/11/07 03:18:11;;;;;;;31.02;21.88;;;;;;;9.44;86.13;101121.06;5157074;27;20037;-70
2021/11/07 03:20:36;;;;;;;29.98;21.13;;;;;;;9.44;86.45;101112.22;5157934;27;20762;-71
2021/11/07 03:23:03;;;;;;;28.83;20.73;;;;;;;9.47;85.70;101101.25;5156954;27;20030;-69
2021/11/07 03:25:28;;;;;;;30.35;20.73;;;;;;;9.46;85.44;101095.06;5158587;27;20031;-70
2021/11/07 03:27:54;;;;;;;31.25;21.95;;;;;;;9.49;85.78;101110.91;5158137;27;20010;-70
2021/11/07 03:32:57;;;;;;;30.52;21.50;;;;;;;9.46;85.33;101107.56;5158567;27;20475;-69
2021/11/07 03:35:23;;;;;;;29.02;21.20;;;;;;;9.49;84.96;101118.06;5158316;27;20022;-70
2021/11/07 03:37:57;;;;;;;32.22;21.38;;;;;;;9.49;85.18;101102.88;5156798;27;20041;-69
2021/11/07 03:40:25;;;;;;;;;;;;;;;9.47;85.32;101094.09;5157873;27;20027;-70
2021/11/07 03:42:51;;;;;;;31.23;20.35;;;;;;;9.45;84.96;101096.03;5156609;27;19922;-69
2021/11/07 03:45:17;;;;;;;29.60;20.60;;;;;;;9.54;84.87;101122.13;5156554;27;20553;-69
2021/11/07 03:47:43;;;;;;;31.02;21.00;;;;;;;9.52;85.09;101108.00;5156524;27;20019;-69
2021/11/07 03:50:09;;;;;;;29.77;20.02;;;;;;;9.51;85.38;101100.09;5156967;27;20049;-69
2021/11/07 03:52:34;;;;;;;32.17;21.45;;;;;;;9.50;85.35;101109.94;5154999;27;20414;-68
2021/11/07 03:55:00;;;;;;;29.20;20.98;;;;;;;9.48;85.11;101103.81;5168086;27;20018;-67
2021/11/07 03:57:25;;;;;;;30.02;20.75;;;;;;;9.50;85.19;101104.56;5167167;27;20090;-69
2021/11/07 03:59:51;;;;;;;30.40;21.15;;;;;;;9.52;84.60;101118.72;5169448;27;20015;-68
2021/11/07 04:02:17;;;;;;;29.02;20.88;;;;;;;9.47;85.08;101111.97;5169749;27;20029;-69
2021/11/07 04:04:43;;;;;;;30.80;20.83;;;;;;;9.52;85.20;101115.19;5168438;27;20050;-68
2021/11/07 04:07:09;;;;;;;33.58;20.85;;;;;;;9.51;85.48;101108.97;5151868;27;20094;-68
2021/11/07 04:09:35;;;;;;;29.00;19.95;;;;;;;9.55;85.77;101112.28;5146677;27;20023;-68
2021/11/07 04:12:00;;;;;;;31.80;20.00;;;;;;;9.52;86.25;101115.19;5136132;27;20118;-69
2021/11/07 04:14:32;;;;;;;33.08;20.63;;;;;;;9.51;86.43;101118.84;5133740;27;20084;-70
2021/11/07 04:16:58;;;;;;;29.50;20.25;;;;;;;9.52;85.96;101109.81;5133332;27;20027;-70
2021/11/07 04:19:24;;;;;;;29.17;19.25;;;;;;;9.55;86.08;101118.50;5133098;27;20482;-70
2021/11/07 04:21:51;;;;;;;27.92;19.80;;;;;;;9.51;85.71;101108.97;5132990;27;20046;-70
2021/11/07 04:24:17;;;;;;;29.40;19.98;;;;;;;9.55;85.98;101121.19;5131650;27;20463;-70
2021/11/07 04:26:42;;;;;;;29.40;19.33;;;;;;;9.55;85.96;101129.22;5131974;27;20015;-69
2021/11/07 04:29:08;;;;;;;27.75;19.15;;;;;;;9.53;86.37;101139.19;5132411;27;20117;-69
2021/11/07 04:31:33;;;;;;;29.77;20.63;;;;;;;9.53;86.50;101139.19;5133387;27;20027;-69
2021/11/07 04:33:59;;;;;;;30.13;20.48;;;;;;;9.55;87.14;101139.94;5132198;27;20019;-69
2021/11/07 04:36:24;;;;;;;27.80;20.20;;;;;;;9.56;87.13;101144.31;5131847;27;20549;-70
2021/11/07 04:38:50;;;;;;;28.98;19.52;;;;;;;9.56;87.64;101144.31;5133113;27;20229;-69
2021/11/07 04:41:19;;;;;;;29.70;19.88;;;;;;;9.57;87.70;101143.34;5132504;27;20023;-69
2021/11/07 04:43:47;;;;;;;30.60;20.98;;;;;;;9.59;88.48;101151.28;5133007;27;20035;-71
2021/11/07 04:46:14;;;;;;;27.38;19.98;;;;;;;9.59;89.10;101146.78;5133171;27;20856;-70
2021/11/07 04:48:42;;;;;;;27.52;19.42;;;;;;;9.57;88.97;101140.66;5133409;27;20070;-70
2021/11/07 04:51:07;;;;;;;27.98;20.05;;;;;;;9.58;89.34;101138.84;5132854;27;20059;-70
2021/11/07 04:53:33;;;;;;;33.20;20.75;;;;;;;9.58;88.79;101136.19;5127835;27;20050;-70
2021/11/07 04:55:58;;;;;;;31.80;19.80;;;;;;;9.57;89.34;101137.97;5132549;27;20106;-68
2021/11/07 04:58:23;;;;;;;31.13;19.85;;;;;;;9.55;89.14;101134.56;5133914;27;20569;-70
2021/11/07 05:00:49;;;;;;;30.30;21.40;;;;;;;9.58;89.21;101141.53;5133746;27;20467;-70
2021/11/07 05:03:15;;;;;;;30.80;19.80;;;;;;;9.57;89.30;101129.13;5131330;27;20348;-70
2021/11/07 05:05:40;;;;;;;32.92;21.10;;;;;;;9.58;89.56;101112.06;5111219;28;20070;-70
2021/11/07 05:08:06;;;;;;;29.48;20.20;;;;;;;9.59;90.28;101127.16;5122947;27;20029;-68
2021/11/07 05:10:32;;;;;;;29.35;20.67;;;;;;;9.58;89.94;101128.13;5130665;27;20031;-70
2021/11/07 05:12:58;;;;;;;39.80;23.40;;;;;;;9.56;90.26;101120.22;5130470;27;20068;-70
2021/11/07 05:15:23;;;;;;;29.58;20.55;;;;;;;9.56;90.33;101125.56;5130777;27;20028;-71
2021/11/07 05:17:50;;;;;;;30.67;21.60;;;;;;;9.56;90.51;101109.50;5131404;27;20050;-71
2021/11/07 05:20:15;;;;;;;28.27;20.33;;;;;;;9.54;90.54;101113.25;5129015;27;20383;-70
2021/11/07 05:22:44;;;;;;;31.20;21.45;;;;;;;9.50;91.13;101123.31;5131254;27;20034;-71
2021/11/07 05:25:11;;;;;;;30.13;21.67;;;;;;;9.51;91.05;101132.22;5131194;27;20066;-69
2021/11/07 05:27:37;;;;;;;31.17;21.63;;;;;;;9.51;90.94;101141.09;5131742;27;20023;-70
2021/11/07 05:30:06;;;;;;;31.73;21.73;;;;;;;9.50;91.43;101128.69;5164522;27;20091;-70
2021/11/07 05:32:32;;;;;;;31.33;21.77;;;;;;;9.47;92.25;101115.50;5130748;27;20351;-71
2021/11/07 05:34:57;;;;;;;30.25;20.58;;;;;;;9.47;92.50;101110.16;5129879;27;20114;-70
2021/11/07 05:37:24;;;;;;;31.90;21.77;;;;;;;9.47;92.54;101107.47;5131612;27;20042;-71
2021/11/07 05:39:49;;;;;;;31.95;21.20;;;;;;;9.50;92.42;101117.97;5132175;27;20038;-71
2021/11/07 05:42:15;;;;;;;32.92;21.73;;;;;;;9.47;92.31;101122.66;5130926;27;20135;-70
2021/11/07 05:44:41;;;;;;;31.02;21.55;;;;;;;9.50;91.77;101122.44;5128961;27;20034;-71
2021/11/07 05:47:06;;;;;;;34.50;22.45;;;;;;;9.47;91.47;101110.16;5130098;27;20023;-69
2021/11/07 05:49:32;;;;;;;30.52;21.95;;;;;;;9.50;91.99;101101.03;5123706;27;20019;-70
2021/11/07 05:51:58;;;;;;;32.65;22.60;;;;;;;9.43;91.23;101103.31;5124993;27;20118;-70
2021/11/07 05:54:23;;;;;;;30.33;21.83;;;;;;;9.48;91.18;101111.00;5124350;27;20031;-69
2021/11/07 05:56:49;;;;;;;32.13;21.73;;;;;;;9.45;91.09;101104.06;5129862;27;20035;-70
2021/11/07 05:59:14;;;;;;;36.03;24.38;;;;;;;9.43;91.69;101105.13;5131542;27;20487;-70
2021/11/07 06:01:40;;;;;;;31.70;23.35;;;;;;;9.45;92.42;101106.75;5130809;27;20038;-69
2021/11/07 06:04:06;;;;;;;38.78;25.38;;;;;;;9.44;92.63;101107.69;5129171;27;20124;-71
2021/11/07 06:06:33;;;;;;;39.15;24.08;;;;;;;9.46;93.91;101120.97;5128899;27;20669;-70
2021/11/07 06:08:58;;;;;;;35.03;24.23;;;;;;;9.45;94.14;101124.63;5130367;27;20344;-70
2021/11/07 06:11:25;;;;;;;34.67;23.73;;;;;;;9.40;93.89;101108.88;5129122;27;20049;-69
2021/11/07 06:13:50;;;;;;;35.65;24.38;;;;;;;9.45;94.44;101111.22;5130497;27;20039;-69
2021/11/07 06:16:17;;;;;;;41.53;27.10;;;;;;;9.41;94.71;101105.22;5129133;27;20038;-70
2021/11/07 06:18:42;;;;;;;40.95;28.08;;;;;;;9.44;94.94;101112.22;5128864;27;20027;-69
2021/11/07 06:21:10;;;;;;;39.95;25.38;;;;;;;9.44;94.64;101118.41;5128634;27;20031;-69
2021/11/07 06:23:36;;;;;;;36.28;25.95;;;;;;;9.48;94.87;101119.06;5131281;27;20053;-70
2021/11/07 06:26:02;;;;;;;36.72;25.13;;;;;;;9.47;94.95;101123.53;5130862;27;20046;-70
2021/11/07 06:28:27;;;;;;;37.78;25.20;;;;;;;9.47;94.74;101117.31;5129505;27;20099;-69
2021/11/07 06:30:53;;;;;;;40.53;26.65;;;;;;;9.48;94.74;101132.44;5129261;27;20082;-70
2021/11/07 06:33:19;;;;;;;39.45;27.13;;;;;;;9.50;94.47;101142.06;5130614;27;20018;-69
2021/11/07 06:35:45;;;;;;;36.53;24.92;;;;;;;9.49;94.71;101144.84;5131177;27;20031;-68
2021/11/07 06:38:11;;;;;;;41.50;27.20;;;;;;;9.51;94.41;101149.13;5131206;27;20528;-69
2021/11/07 06:40:37;;;;;;;36.67;24.42;;;;;;;9.49;94.76;101148.41;5131272;27;20077;-70
2021/11/07 06:43:03;;;;;;;38.53;25.35;;;;;;;9.48;94.68;101146.66;5131143;27;20070;-69
2021/11/07 06:45:29;;;;;;;37.60;24.88;;;;;;;9.45;95.22;101146.91;5129879;27;20025;-69
2021/11/07 06:47:54;;;;;;;39.38;26.13;;;;;;;9.47;95.41;101154.78;5130718;27;20406;-70
2021/11/07 06:50:20;;;;;;;37.67;26.42;;;;;;;9.49;96.15;101143.03;5129790;27;20023;-70
2021/11/07 06:52:46;;;;;;;34.35;25.05;;;;;;;9.50;96.65;101136.72;5130096;27;20031;-70
2021/11/07 06:55:13;;;;;;;39.63;26.27;;;;;;;9.48;96.75;101124.41;5131054;27;20444;-70
2021/11/07 06:57:40;;;;;;;41.08;26.25;;;;;;;9.51;96.83;101130.38;5131008;27;20039;-70
2021/11/07 07:00:09;;;;;;;42.35;28.27;;;;;;;9.54;97.03;101124.81;5131251;27;20027;-70
2021/11/07 07:02:34;;;;;;;39.42;28.20;;;;;;;9.52;96.58;101110.69;5130613;27;20168;-70
2021/11/07 07:05:01;;;;;;;48.65;32.95;;;;;;;9.55;96.52;101115.84;5129992;27;20508;-69
2021/11/07 07:07:29;;;;;;;45.08;34.03;;;;;;;9.59;96.48;101113.78;5128532;27;20031;-70
2021/11/07 07:09:59;;;;;;;46.85;32.65;;;;;;;9.53;96.50;101098.13;5130408;27;20364;-71
2021/11/07 07:15:02;;;;;;;50.72;33.90;;;;;;;9.62;96.39;101090.31;5130489;27;20015;-70
2021/11/07 07:17:36;;;;;;;55.67;41.13;;;;;;;9.60;95.68;101094.91;5128323;27;20130;-68
2021/11/07 07:20:19;;;;;;;50.38;38.08;;;;;;;9.65;95.29;101091.91;5130066;27;20019;-69
2021/11/07 07:35:12;;;;;;;38.47;27.65;;;;;;;9.67;95.88;101088.16;5132327;27;20026;-69
2021/11/07 07:37:38;;;;;;;38.47;27.70;;;;;;;9.69;96.13;101094.28;5133477;27;20043;-70
2021/11/07 07:40:06;;;;;;;39.53;28.48;;;;;;;9.68;96.59;101100.59;5132050;27;20031;-70
2021/11/07 07:42:32;;;;;;;46.67;32.35;;;;;;;9.67;96.62;101096.19;5131772;27;20043;-70
2021/11/07 07:44:58;;;;;;;50.60;35.15;;;;;;;9.68;96.49;101097.06;5133832;27;20033;-70
2021/11/07 07:47:24;;;;;;;41.28;30.98;;;;;;;9.70;96.07;101109.38;5131969;27;20011;-69
2021/11/07 07:49:51;;;;;;;42.15;29.23;;;;;;;9.72;96.13;101106.56;5134780;27;20450;-69
2021/11/07 07:52:20;;;;;;;39.92;27.05;;;;;;;9.69;96.18;101104.97;5134572;27;20027;-70
2021/11/07 07:54:47;;;;;;;40.28;26.65;;;;;;;9.73;95.23;101106.47;5134347;27;20058;-70
2021/11/07 07:57:12;;;;;;;37.97;26.23;;;;;;;9.74;94.65;101089.41;5133225;27;20030;-70
2021/11/07 07:59:38;;;;;;;41.15;26.67;;;;;;;9.77;94.91;101086.53;5134890;27;20023;-70
2021/11/07 08:02:03;;;;;;;39.55;26.65;;;;;;;9.76;94.08;101076.78;5135146;27;20027;-71
2021/11/07 08:04:29;;;;;;;39.80;27.23;;;;;;;9.76;94.44;101066.06;5134526;27;20118;-74
2021/11/07 08:06:55;;;;;;;35.78;24.17;;;;;;;9.81;94.52;101052.34;5135001;27;20459;-70
2021/11/07 08:09:21;;;;;;;36.30;24.95;;;;;;;9.85;93.74;101049.34;5134911;27;20061;-70
2021/11/07 08:11:46;;;;;;;38.33;25.88;;;;;;;9.86;94.51;101034.97;5134644;27;20089;-71
2021/11/07 08:14:12;;;;;;;34.45;25.60;;;;;;;9.89;94.19;101029.38;5134812;27;20045;-71
2021/11/07 08:16:38;;;;;;;38.35;24.52;;;;;;;9.87;94.66;100996.47;5134671;27;20034;-69
2021/11/07 08:19:05;;;;;;;38.83;26.08;;;;;;;9.96;94.33;100998.47;5134563;27;20037;-70
2021/11/07 08:21:37;;;;;;;36.42;24.92;;;;;;;10.01;94.11;100999.00;5132328;27;20439;-70
2021/11/07 08:24:04;;;;;;;35.90;24.02;;;;;;;10.05;93.27;101003.16;5134596;27;20479;-70
2021/11/07 08:26:32;;;;;;;34.72;24.48;;;;;;;10.11;93.23;101001.88;5133200;27;20038;-71
2021/11/07 08:28:59;;;;;;;36.53;24.45;;;;;;;10.13;93.20;101008.81;5134632;27;20054;-70
2021/11/07 08:31:27;;;;;;;37.95;24.10;;;;;;;10.13;92.75;101016.03;5134546;27;20425;-69
2021/11/07 08:33:53;;;;;;;33.72;23.55;;;;;;;10.19;93.01;101026.28;5131875;27;20026;-69
2021/11/07 08:36:23;;;;;;;37.00;24.15;;;;;;;10.21;92.70;101030.56;5134280;27;20027;-70
2021/11/07 08:39:11;;;;;;;33.97;23.63;;;;;;;10.23;92.22;101027.75;5134499;27;20015;-70
2021/11/07 08:41:44;;;;;;;36.70;22.85;;;;;;;10.25;91.77;101026.66;5133997;27;20035;-69
2021/11/07 09:10:31;;;;;;;33.10;22.77;;;;;;;10.97;87.12;100961.13;5134291;27;20359;-71
2021/11/07 09:12:58;;;;;;;35.85;23.88;;;;;;;10.96;86.45;100940.59;5131757;27;20433;-71
2021/11/07 09:15:26;;;;;;;31.80;22.58;;;;;;;11.01;86.71;100946.47;5125593;27;20027;-70
2021/11/07 09:17:52;;;;;;;37.58;23.98;;;;;;;11.01;86.40;100957.22;5133820;27;20027;-69
2021/11/07 09:20:26;;;;;;;33.92;23.17;;;;;;;11.01;86.50;100951.84;5133637;27;20074;-70
2021/11/07 09:22:56;;;;;;;30.52;22.30;;;;;;;11.02;86.10;100957.09;5133602;27;20383;-71
2021/11/07 09:25:37;;;;;;;33.97;23.63;;;;;;;10.99;86.16;100941.22;5133443;27;20531;-71
2021/11/07 09:38:30;;;;;;;32.20;21.90;;;;;;;11.03;85.98;100947.22;5133249;27;20027;-69
2021/11/07 09:43:46;;;;;;;33.38;22.10;;;;;;;11.03;85.42;100961.47;5133012;27;20395;-70
2021/11/07 09:49:01;;;;;;;;;;;;;;;10.98;86.70;100944.91;5133860;27;20502;-70
2021/11/07 09:51:36;;;;;;;28.98;20.88;;;;;;;11.00;87.10;100939.41;5129321;27;20608;-71
2021/11/07 09:54:03;;;;;;;32.80;22.85;;;;;;;10.98;87.63;100930.63;5130791;27;20023;-71
2021/11/07 09:56:30;;;;;;;32.95;22.33;;;;;;;11.04;87.16;100930.13;5132723;27;20034;-71
2021/11/07 09:58:58;;;;;;;32.22;22.70;;;;;;;11.03;87.73;100934.63;5131410;27;20612;-69
2021/11/07 10:01:24;;;;;;;32.08;22.27;;;;;;;11.05;87.39;100924.66;5132955;27;20016;-70
2021/11/07 10:03:51;;;;;;;32.58;22.70;;;;;;;11.03;87.59;100934.63;5132063;27;20051;-71
2021/11/07 10:06:35;;;;;;;33.08;22.40;;;;;;;11.06;88.17;100942.44;5132803;27;20027;-71
2021/11/07 10:09:03;;;;;;;31.17;21.48;;;;;;;11.16;89.04;100946.09;5130507;27;20039;-70
2021/11/07 10:11:41;;;;;;;32.03;22.80;;;;;;;11.21;89.80;100921.56;5132672;27;20023;-71
2021/11/07 10:14:14;;;;;;;31.80;23.52;;;;;;;11.30;90.12;100905.59;5130595;27;20031;-70
2021/11/07 10:16:46;;;;;;;28.40;20.77;;;;;;;11.50;89.38;100928.09;5132418;27;20030;-71
2021/11/07 10:19:28;;;;;;;32.05;21.95;;;;;;;11.57;88.22;100909.66;5132678;27;20121;-71
2021/11/07 10:21:55;;;;;;;30.52;22.10;;;;;;;11.69;86.62;100888.03;5130416;27;20098;-71
2021/11/07 10:24:25;;;;;;;28.15;21.15;;;;;;;11.99;83.00;100895.38;5132328;27;20023;-70
2021/11/07 10:26:59;;;;;;;26.42;20.50;;;;;;;12.08;82.05;100905.31;5131882;27;20023;-67
2021/11/07 10:30:03;;;;;;;27.13;19.90;;;;;;;12.17;80.87;100897.34;5129964;27;20593;-66
2021/11/07 10:32:36;;;;;;;28.05;20.35;;;;;;;12.35;78.76;100889.53;5131081;27;20097;-68
2021/11/07 10:35:33;;;;;;;31.00;21.33;;;;;;;12.52;76.89;100894.31;5131136;27;20487;-68
2021/11/07 10:41:56;;;;;;;27.40;19.92;;;;;;;12.58;76.35;100886.53;5130740;27;20037;-67
2021/11/07 10:52:23;;;;;;;27.20;19.15;;;;;;;12.44;76.73;100873.44;5130728;28;20037;-67
2021/11/07 10:54:49;;;;;;;28.85;20.73;;;;;;;12.42;77.34;100874.56;5130681;27;20041;-66
2021/11/07 10:57:28;;;;;;;28.90;20.85;;;;;;;12.37;77.67;100856.13;5125965;27;20031;-67
2021/11/07 11:00:11;;;;;;;27.55;20.40;;;;;;;12.34;79.16;100866.28;5127698;27;20057;-67
2021/11/07 11:02:39;;;;;;;31.48;20.35;;;;;;;12.30;78.62;100887.25;5127880;28;20065;-69
2021/11/07 11:05:10;;;;;;;27.10;20.65;;;;;;;12.27;78.41;100884.81;5128392;27;20050;-69
2021/11/07 11:07:56;;;;;;;28.80;20.13;;;;;;;12.28;78.41;100883.81;5129595;27;20023;-70
2021/11/07 11:10:29;;;;;;;29.60;20.23;;;;;;;12.20;78.75;100858.56;5131147;27;20043;-72
2021/11/07 11:13:21;;;;;;;28.60;21.15;;;;;;;12.17;79.89;100857.00;5133033;27;20714;-68
2021/11/07 11:16:13;;;;;;;27.25;19.85;;;;;;;12.15;80.23;100847.38;5133489;27;20383;-69
2021/11/07 11:34:27;;;;;;;28.55;19.88;;;;;;;12.08;80.07;100816.59;5133371;27;20045;-69
2021/11/07 11:39:34;;;;;;;26.33;19.08;;;;;;;12.14;79.51;100819.63;5131677;27;20039;-71
2021/11/07 11:42:07;;;;;;;26.67;18.67;;;;;;;12.12;79.43;100818.88;5133687;27;20542;-70
2021/11/07 11:44:34;;;;;;;27.65;18.08;;;;;;;12.14;79.41;100811.56;5132762;27;20498;-69
2021/11/07 11:50:24;;;;;;;27.23;18.63;;;;;;;12.14;78.96;100802.63;5133865;27;20452;-70
2021/11/07 12:00:50;;;;;;;29.55;20.02;;;;;;;12.28;77.01;100787.00;5134315;27;20031;-71
2021/11/07 12:03:45;;;;;;;27.70;19.65;;;;;;;12.30;77.38;100803.00;5127365;27;20102;-71
2021/11/07 12:06:46;;;;;;;27.03;18.73;;;;;;;12.28;77.26;100796.91;5131849;27;20043;-70
2021/11/07 12:09:34;;;;;;;26.98;18.98;;;;;;;12.28;77.21;100800.44;5132102;27;20023;-70
2021/11/07 12:15:02;;;;;;;25.83;17.95;;;;;;;12.37;75.94;100809.53;5133520;27;20030;-69
2021/11/07 12:17:34;;;;;;;25.15;17.55;;;;;;;12.41;73.92;100809.13;5128729;27;20015;-69
2021/11/07 12:20:20;;;;;;;25.63;18.38;;;;;;;12.42;74.08;100801.94;5133299;27;20050;-69
2021/11/07 12:22:46;;;;;;;28.50;18.35;;;;;;;12.49;73.25;100803.09;5133687;27;20023;-69
2021/11/07 12:25:13;;;;;;;23.15;17.13;;;;;;;12.57;72.70;100803.25;5131921;27;20054;-70
2021/11/07 12:27:48;;;;;;;26.00;18.20;;;;;;;12.60;73.86;100797.59;5132787;27;20470;-70
2021/11/07 12:30:20;;;;;;;26.02;17.10;;;;;;;12.66;73.46;100797.06;5131045;27;20043;-71
2021/11/07 12:32:48;;;;;;;27.30;18.70;;;;;;;12.66;73.68;100791.69;5133652;27;20027;-70
2021/11/07 12:35:40;;;;;;;23.98;17.35;;;;;;;12.64;72.91;100781.06;5132975;27;20579;-70
2021/11/07 12:41:14;;;;;;;26.25;17.98;;;;;;;12.74;72.39;100771.16;5129074;27;20502;-71
2021/11/07 12:43:46;;;;;;;26.60;17.17;;;;;;;12.76;72.97;100765.66;5133188;27;20043;-70
2021/11/07 12:49:16;;;;;;;23.85;16.63;;;;;;;12.74;71.98;100762.25;5133551;27;20034;-71
2021/11/07 12:51:57;;;;;;;26.15;17.60;;;;;;;12.74;72.18;100770.34;5132047;27;20050;-70
2021/11/07 12:54:23;;;;;;;24.73;17.60;;;;;;;12.74;72.56;100764.94;5133775;27;20035;-71
2021/11/07 12:57:05;;;;;;;25.08;18.20;;;;;;;12.73;72.77;100772.16;5133936;27;20019;-70
2021/11/07 13:00:00;;;;;;;23.58;16.35;;;;;;;12.71;71.58;100763.38;5130747;27;20027;-71
2021/11/07 13:02:31;;;;;;;25.30;17.23;;;;;;;12.78;70.93;100769.94;5132994;27;20072;-70
2021/11/07 13:05:31;;;;;;;22.55;16.42;;;;;;;12.76;70.98;100771.03;5133890;27;20039;-72
2021/11/07 13:08:00;;;;;;;24.73;17.70;;;;;;;12.80;70.81;100765.25;5128950;27;20439;-71
2021/11/07 13:25:54;;;;;;;26.33;17.60;;;;;;;12.68;71.39;100730.50;5134272;27;20023;-71
2021/11/07 13:28:33;;;;;;;25.80;18.48;;;;;;;12.67;71.86;100728.81;5133832;27;20438;-71
2021/11/07 13:33:39;;;;;;;20.80;15.35;;;;;;;12.67;70.88;100691.97;5126249;27;20030;-71
2021/11/07 13:36:05;;;;;;;21.85;15.98;;;;;;;12.62;71.01;100674.53;5131363;27;20023;-71
2021/11/07 13:38:38;;;;;;;21.25;16.30;;;;;;;12.67;71.46;100664.22;5133965;27;20109;-71
2021/11/07 13:41:32;;;;;;;26.05;17.08;;;;;;;12.67;72.23;100683.91;5132508;27;20441;-71
2021/11/07 13:44:02;;;;;;;24.88;18.10;;;;;;;12.70;72.18;100682.75;5127970;27;20091;-72
2021/11/07 13:46:27;;;;;;;21.27;16.40;;;;;;;12.68;73.34;100677.53;5132015;27;20050;-71
2021/11/07 13:49:02;;;;;;;22.90;17.15;;;;;;;12.62;72.80;100661.94;5131706;27;20023;-71
2021/11/07 13:51:32;;;;;;;22.27;17.67;;;;;;;12.68;72.82;100687.44;5133020;27;20376;-72